createdAt,value
2019-02-27T00:01:05.099Z,14.60
2019-02-27T00:03:32.139Z,13.55
2019-02-27T00:05:59.211Z,10.65
2019-02-27T00:08:27.054Z,13.43
2019-02-27T00:10:54.610Z,12.53
2019-02-27T00:13:24.675Z,13.53
2019-02-27T00:15:50.785Z,12.43
2019-02-27T00:18:17.850Z,15.50
2019-02-27T00:20:44.901Z,13.40
2019-02-27T00:23:11.954Z,13.48
2019-02-27T00:25:39.000Z,12.98
2019-02-27T00:28:06.060Z,16.05
2019-02-27T00:30:33.115Z,14.80
2019-02-27T00:33:00.196Z,17.80
2019-02-27T00:35:27.228Z,22.07
2019-02-27T00:37:54.275Z,12.18
2019-02-27T00:40:21.313Z,12.68
2019-02-27T00:42:48.360Z,15.83
2019-02-27T00:45:15.430Z,17.67
2019-02-27T00:47:42.466Z,18.50
2019-02-27T00:50:09.553Z,13.25
2019-02-27T00:52:36.565Z,10.25
2019-02-27T00:55:05.210Z,16.17
2019-02-27T00:57:32.367Z,13.38
2019-02-27T00:59:59.402Z,15.85
2019-02-27T01:02:26.465Z,13.32
2019-02-27T01:04:53.512Z,10.88
2019-02-27T01:07:21.389Z,19.20
2019-02-27T01:09:49.495Z,22.22
2019-02-27T01:12:16.544Z,11.38
2019-02-27T01:14:43.599Z,12.13
2019-02-27T01:17:10.659Z,14.78
2019-02-27T01:19:39.251Z,13.18
2019-02-27T01:22:06.432Z,9.63
2019-02-27T01:24:33.459Z,14.43
2019-02-27T01:27:04.135Z,11.05
2019-02-27T01:29:29.461Z,8.55
2019-02-27T01:31:57.677Z,11.80
2019-02-27T01:34:25.237Z,15.32
2019-02-27T01:36:52.271Z,12.33
2019-02-27T01:39:19.331Z,11.90
2019-02-27T01:41:46.412Z,11.78
2019-02-27T01:44:13.801Z,11.63
2019-02-27T01:46:41.275Z,16.93
2019-02-27T01:49:08.291Z,10.10
2019-02-27T01:51:35.322Z,7.80
2019-02-27T01:54:02.359Z,15.98
2019-02-27T01:56:29.728Z,13.70
2019-02-27T01:58:56.739Z,13.53
2019-02-27T02:01:23.787Z,12.50
2019-02-27T02:03:50.841Z,16.35
2019-02-27T02:06:17.901Z,14.95
2019-02-27T02:08:47.955Z,15.63
2019-02-27T02:11:13.905Z,14.55
2019-02-27T02:14:13.200Z,14.70
2019-02-27T02:17:09.186Z,12.78
2019-02-27T02:20:27.746Z,13.53
2019-02-27T02:23:14.271Z,12.58
2019-02-27T02:26:05.524Z,12.45
2019-02-27T02:29:21.008Z,15.48
2019-02-27T02:32:09.642Z,16.57
2019-02-27T02:35:14.852Z,13.50
2019-02-27T02:38:15.721Z,10.88
2019-02-27T02:41:11.992Z,17.10
2019-02-27T02:44:10.509Z,13.72
2019-02-27T02:46:57.887Z,14.43
2019-02-27T02:49:50.113Z,12.58
2019-02-27T02:52:40.216Z,14.03
2019-02-27T02:55:29.114Z,13.65
2019-02-27T02:58:16.211Z,12.18
2019-02-27T03:01:14.161Z,14.45
2019-02-27T03:04:12.564Z,17.42
2019-02-27T03:07:11.062Z,12.47
2019-02-27T03:10:27.883Z,18.35
2019-02-27T03:13:33.924Z,12.47
2019-02-27T03:16:42.388Z,13.80
2019-02-27T03:19:41.466Z,15.43
2019-02-27T03:22:46.153Z,15.95
2019-02-27T03:25:40.665Z,14.70
2019-02-27T03:28:57.463Z,12.58
2019-02-27T03:31:57.563Z,13.58
2019-02-27T03:34:50.207Z,13.95
2019-02-27T03:37:25.045Z,10.95
2019-02-27T03:40:48.100Z,13.85
2019-02-27T03:43:34.322Z,17.25
2019-02-27T03:46:49.088Z,15.40
2019-02-27T03:49:42.426Z,22.07
2019-02-27T03:52:44.039Z,20.27
2019-02-27T03:56:10.108Z,32.38
2019-02-27T03:59:17.411Z,17.92
2019-02-27T04:02:22.024Z,15.03
2019-02-27T04:05:06.939Z,14.20
2019-02-27T04:08:08.280Z,14.38
2019-02-27T04:10:33.601Z,12.95
2019-02-27T04:13:00.641Z,13.20
2019-02-27T04:15:27.675Z,14.05
2019-02-27T04:17:53.713Z,15.75
2019-02-27T04:20:20.747Z,12.23
2019-02-27T04:22:47.789Z,11.50
2019-02-27T04:25:14.840Z,12.68
2019-02-27T04:27:41.869Z,15.80
2019-02-27T04:30:08.927Z,18.55
2019-02-27T04:32:35.982Z,17.75
2019-02-27T04:35:05.929Z,12.98
2019-02-27T04:37:32.030Z,14.58
2019-02-27T04:39:59.104Z,11.78
2019-02-27T04:42:26.526Z,16.20
2019-02-27T04:44:53.557Z,14.83
2019-02-27T04:47:20.984Z,16.10
2019-02-27T04:49:48.036Z,28.40
2019-02-27T04:52:15.072Z,22.75
2019-02-27T04:54:42.198Z,21.85
2019-02-27T04:57:09.256Z,18.48
2019-02-27T04:59:36.281Z,27.85
2019-02-27T05:02:03.328Z,25.68
2019-02-27T05:04:34.793Z,20.88
2019-02-27T05:06:59.288Z,21.30
2019-02-27T05:09:26.344Z,20.32
2019-02-27T05:11:53.390Z,19.73
2019-02-27T05:14:20.456Z,22.15
2019-02-27T05:16:47.836Z,22.45
2019-02-27T05:19:15.311Z,22.45
2019-02-27T05:21:42.493Z,26.00
2019-02-27T05:24:09.526Z,23.55
2019-02-27T05:26:36.562Z,24.45
2019-02-27T05:29:03.620Z,30.12
2019-02-27T05:31:30.671Z,21.90
2019-02-27T05:33:57.722Z,27.42
2019-02-27T05:36:24.800Z,26.60
2019-02-27T05:38:51.855Z,24.50
2019-02-27T05:41:18.896Z,22.15
2019-02-27T05:43:48.454Z,17.60
2019-02-27T05:46:15.189Z,14.75
2019-02-27T05:48:42.311Z,16.55
2019-02-27T05:51:10.737Z,22.65
2019-02-27T05:53:37.798Z,24.98
2019-02-27T05:56:04.827Z,17.07
2019-02-27T05:58:31.865Z,20.92
2019-02-27T06:00:58.891Z,24.27
2019-02-27T06:03:25.937Z,21.48
2019-02-27T06:05:52.995Z,20.43
2019-02-27T06:08:20.035Z,17.67
2019-02-27T06:10:47.055Z,19.87
2019-02-27T06:13:14.700Z,15.90
2019-02-27T06:15:41.859Z,18.25
2019-02-27T06:18:08.923Z,15.35
2019-02-27T06:20:35.953Z,13.93
2019-02-27T06:23:04.398Z,15.70
2019-02-27T06:25:32.103Z,26.77
2019-02-27T06:27:59.151Z,21.25
2019-02-27T06:30:27.955Z,21.40
2019-02-27T06:32:55.263Z,21.15
2019-02-27T06:35:22.305Z,22.87
2019-02-27T06:37:50.702Z,18.23
2019-02-27T06:40:18.568Z,20.27
2019-02-27T06:42:45.688Z,21.52
2019-02-27T06:45:13.494Z,27.07
2019-02-27T06:47:40.523Z,28.80
2019-02-27T06:50:09.298Z,25.40
2019-02-27T06:52:36.353Z,28.95
2019-02-27T06:55:03.980Z,26.33
2019-02-27T06:57:31.149Z,22.02
2019-02-27T07:00:02.067Z,24.90
2019-02-27T07:02:27.129Z,22.52
2019-02-27T07:04:54.185Z,13.90
2019-02-27T07:07:21.230Z,22.73
2019-02-27T07:09:48.292Z,15.55
2019-02-27T07:12:15.357Z,17.92
2019-02-27T07:14:42.392Z,16.93
2019-02-27T07:17:09.430Z,18.60
2019-02-27T07:19:36.468Z,18.80
2019-02-27T07:22:03.504Z,24.65
2019-02-27T07:24:33.045Z,27.95
2019-02-27T07:26:59.516Z,21.70
2019-02-27T07:29:27.560Z,16.42
2019-02-27T07:31:57.160Z,25.20
2019-02-27T07:34:24.142Z,21.87
2019-02-27T07:36:51.203Z,20.20
2019-02-27T07:39:18.260Z,23.92
2019-02-27T07:41:45.350Z,27.10
2019-02-27T07:44:12.388Z,28.98
2019-02-27T07:46:39.487Z,19.42
2019-02-27T07:49:06.546Z,17.25
2019-02-27T07:51:36.651Z,16.32
2019-02-27T07:54:04.021Z,19.30
2019-02-27T07:56:31.088Z,28.02
2019-02-27T07:58:58.137Z,20.43
2019-02-27T08:01:25.171Z,26.27
2019-02-27T08:03:52.221Z,27.05
2019-02-27T08:06:19.356Z,17.92
2019-02-27T08:08:46.396Z,17.85
2019-02-27T08:11:14.156Z,21.33
2019-02-27T08:13:41.332Z,18.67
2019-02-27T08:16:08.356Z,11.48
2019-02-27T08:18:37.717Z,14.83
2019-02-27T08:21:04.383Z,13.83
2019-02-27T08:23:31.727Z,13.72
2019-02-27T08:26:04.774Z,10.38
2019-02-27T08:28:28.826Z,14.60
2019-02-27T08:30:55.867Z,11.85
2019-02-27T08:33:22.941Z,12.43
2019-02-27T08:35:50.008Z,10.23
2019-02-27T08:38:17.070Z,10.03
2019-02-27T08:40:44.146Z,13.60
2019-02-27T08:43:11.209Z,17.85
2019-02-27T08:45:38.251Z,12.30
2019-02-27T08:48:05.317Z,7.95
2019-02-27T08:50:32.386Z,17.25
2019-02-27T08:52:59.438Z,11.20
2019-02-27T08:55:26.483Z,8.55
2019-02-27T08:57:56.843Z,11.63
2019-02-27T09:00:23.418Z,9.50
2019-02-27T09:02:50.474Z,12.37
2019-02-27T09:05:20.030Z,13.80
2019-02-27T09:07:46.643Z,10.65
2019-02-27T09:10:14.333Z,14.35
2019-02-27T09:12:41.418Z,11.22
2019-02-27T09:15:09.035Z,10.90
2019-02-27T09:17:36.119Z,9.88
2019-02-27T09:20:03.680Z,11.80
2019-02-27T09:22:30.740Z,12.78
2019-02-27T09:24:57.791Z,13.93
2019-02-27T09:27:24.852Z,13.05
2019-02-27T09:29:52.358Z,12.95
2019-02-27T09:32:20.912Z,15.43
2019-02-27T09:34:47.957Z,12.23
2019-02-27T09:37:16.833Z,16.12
2019-02-27T09:39:44.302Z,10.98
2019-02-27T09:42:11.344Z,20.52
2019-02-27T09:44:38.432Z,10.97
2019-02-27T09:47:05.472Z,14.03
2019-02-27T09:49:32.539Z,16.60
2019-02-27T09:51:59.578Z,12.60
2019-02-27T09:54:26.620Z,19.03
2019-02-27T09:56:53.687Z,21.40
2019-02-27T09:59:20.742Z,13.03
2019-02-27T10:01:47.811Z,14.00
2019-02-27T10:04:14.868Z,16.57
2019-02-27T10:06:42.791Z,15.40
2019-02-27T10:09:15.175Z,15.27
2019-02-27T10:11:42.324Z,18.63
2019-02-27T10:14:09.392Z,24.50
2019-02-27T10:16:36.473Z,12.73
2019-02-27T10:19:03.565Z,12.40
2019-02-27T10:21:30.627Z,11.77
2019-02-27T10:23:57.681Z,15.27
2019-02-27T10:26:24.758Z,15.60
2019-02-27T10:28:51.811Z,13.87
2019-02-27T10:31:18.881Z,14.33
2019-02-27T10:33:45.967Z,14.07
2019-02-27T10:36:13.066Z,15.13
2019-02-27T10:38:40.584Z,17.20
2019-02-27T10:41:07.742Z,19.67
2019-02-27T10:43:34.820Z,16.50
2019-02-27T10:46:01.997Z,19.07
2019-02-27T10:48:29.086Z,16.83
2019-02-27T10:50:56.131Z,13.70
2019-02-27T10:53:27.198Z,18.30
2019-02-27T10:55:52.146Z,16.73
2019-02-27T10:58:19.207Z,15.23
2019-02-27T11:00:48.660Z,17.67
2019-02-27T11:03:15.745Z,19.63
2019-02-27T11:05:42.799Z,14.00
2019-02-27T11:08:09.843Z,17.63
2019-02-27T11:10:36.913Z,15.47
2019-02-27T11:13:06.773Z,17.70
2019-02-27T11:15:32.976Z,14.73
2019-02-27T11:18:04.174Z,17.60
2019-02-27T11:20:29.011Z,17.07
2019-02-27T11:22:56.072Z,15.80
2019-02-27T11:25:23.310Z,16.70
2019-02-27T11:27:50.370Z,18.93
2019-02-27T11:30:19.638Z,16.03
2019-02-27T11:32:46.689Z,16.20
2019-02-27T11:35:13.757Z,16.00
2019-02-27T11:37:40.911Z,16.80
2019-02-27T11:40:09.893Z,12.40
2019-02-27T11:42:36.955Z,14.60
2019-02-27T11:45:04.515Z,15.33
2019-02-27T11:47:31.700Z,14.73
2019-02-27T11:49:58.747Z,14.00
2019-02-27T11:52:28.719Z,19.30
2019-02-27T11:54:54.780Z,19.90
2019-02-27T11:57:21.826Z,16.20
2019-02-27T11:59:48.902Z,17.90
2019-02-27T12:02:15.934Z,13.30
2019-02-27T12:04:43.002Z,14.60
2019-02-27T12:07:10.059Z,13.80
2019-02-27T12:09:37.079Z,19.50
2019-02-27T12:12:04.156Z,14.30
2019-02-27T12:14:31.215Z,13.37
2019-02-27T12:16:58.272Z,15.50
2019-02-27T12:19:25.356Z,17.10
2019-02-27T12:21:52.391Z,15.20
2019-02-27T12:24:19.626Z,17.10
2019-02-27T12:26:46.738Z,17.30
2019-02-27T12:29:13.794Z,13.13
2019-02-27T12:31:40.878Z,19.30
2019-02-27T12:34:07.948Z,15.70
2019-02-27T12:36:35.006Z,13.50
2019-02-27T12:39:03.194Z,17.23
2019-02-27T12:41:32.484Z,13.23
2019-02-27T12:43:59.254Z,14.20
2019-02-27T12:46:26.308Z,13.30
2019-02-27T12:48:53.401Z,12.03
2019-02-27T12:51:21.106Z,13.47
2019-02-27T12:53:48.210Z,15.20
2019-02-27T12:56:15.276Z,13.50
2019-02-27T12:58:42.414Z,16.97
2019-02-27T13:01:09.509Z,12.50
2019-02-27T13:03:36.583Z,10.60
2019-02-27T13:06:03.970Z,11.73
2019-02-27T13:08:31.053Z,15.53
2019-02-27T13:10:58.125Z,11.40
2019-02-27T13:13:25.892Z,10.13
2019-02-27T13:15:53.581Z,11.10
2019-02-27T13:18:20.624Z,12.23
2019-02-27T13:20:47.710Z,14.10
2019-02-27T13:23:14.751Z,16.77
2019-02-27T13:25:41.815Z,13.43
2019-02-27T13:28:08.887Z,13.20
2019-02-27T13:30:35.933Z,9.57
2019-02-27T13:33:02.995Z,12.77
2019-02-27T13:35:30.071Z,11.90
2019-02-27T13:37:57.175Z,15.70
2019-02-27T13:40:24.241Z,12.17
2019-02-27T13:42:53.380Z,10.73
2019-02-27T13:45:21.804Z,12.37
2019-02-27T13:47:48.890Z,9.70
2019-02-27T13:50:16.823Z,12.17
2019-02-27T13:52:44.507Z,10.73
2019-02-27T13:55:15.017Z,8.70
2019-02-27T13:57:42.460Z,11.80
2019-02-27T14:00:12.792Z,13.03
2019-02-27T14:02:39.869Z,11.30
2019-02-27T14:05:07.012Z,10.10
2019-02-27T14:07:34.069Z,10.60
2019-02-27T14:10:01.112Z,10.50
2019-02-27T14:12:29.935Z,9.50
2019-02-27T14:14:57.147Z,7.73
2019-02-27T14:17:24.200Z,7.90
2019-02-27T14:19:51.245Z,8.63
2019-02-27T14:22:18.298Z,10.90
2019-02-27T14:24:45.374Z,8.87
2019-02-27T14:27:15.237Z,9.23
2019-02-27T14:29:42.306Z,9.00
2019-02-27T14:32:09.360Z,6.50
2019-02-27T14:34:36.426Z,9.67
2019-02-27T14:37:03.468Z,5.77
2019-02-27T14:39:30.554Z,11.00
2019-02-27T14:41:57.605Z,9.57
2019-02-27T14:44:24.717Z,5.60
2019-02-27T14:46:51.782Z,6.90
2019-02-27T14:49:19.044Z,6.77
2019-02-27T14:51:46.084Z,6.23
2019-02-27T14:54:13.198Z,6.80
2019-02-27T14:56:41.741Z,12.90
2019-02-27T14:59:09.272Z,10.50
2019-02-27T15:01:36.330Z,15.07
2019-02-27T15:04:03.415Z,12.60
2019-02-27T15:06:30.517Z,11.00
2019-02-27T15:08:58.224Z,12.13
2019-02-27T15:11:26.593Z,15.97
2019-02-27T15:13:53.664Z,12.80
2019-02-27T15:16:21.878Z,11.97
2019-02-27T15:18:49.050Z,12.80
2019-02-27T15:21:16.096Z,14.03
2019-02-27T15:23:43.162Z,14.57
2019-02-27T15:26:12.846Z,17.73
2019-02-27T15:28:39.256Z,10.77
2019-02-27T15:31:06.339Z,11.33
2019-02-27T15:33:35.829Z,10.30
2019-02-27T15:36:02.399Z,9.23
2019-02-27T15:38:29.470Z,13.67
2019-02-27T15:40:56.555Z,11.13
2019-02-27T15:43:23.641Z,13.50
2019-02-27T15:45:50.699Z,13.90
2019-02-27T15:48:17.770Z,16.80
2019-02-27T15:50:44.899Z,13.10
2019-02-27T15:53:14.854Z,13.80
2019-02-27T15:55:40.969Z,12.00
2019-02-27T15:58:08.311Z,9.60
2019-02-27T16:00:35.488Z,12.73
2019-02-27T16:03:02.582Z,9.57
2019-02-27T16:05:31.383Z,14.53
2019-02-27T16:07:58.750Z,10.20
2019-02-27T16:10:25.853Z,12.30
2019-02-27T16:12:52.931Z,15.50
2019-02-27T16:15:20.185Z,11.57
2019-02-27T16:17:47.249Z,12.20
2019-02-27T16:20:16.157Z,12.47
2019-02-27T16:22:43.952Z,14.50
2019-02-27T16:25:13.949Z,10.90
2019-02-27T16:27:42.239Z,10.60
2019-02-27T16:30:20.523Z,8.80
2019-02-27T16:32:48.522Z,11.00
2019-02-27T16:35:16.646Z,8.77
2019-02-27T16:37:43.720Z,11.77
2019-02-27T16:40:11.818Z,10.60
2019-02-27T16:42:39.710Z,11.03
2019-02-27T16:45:09.353Z,10.00
2019-02-27T16:47:36.411Z,9.20
2019-02-27T16:50:03.846Z,11.33
2019-02-27T16:52:31.750Z,9.53
2019-02-27T16:55:01.457Z,7.60
2019-02-27T16:57:27.819Z,8.63
2019-02-27T16:59:54.906Z,6.57
2019-02-27T17:02:21.985Z,9.60
2019-02-27T17:04:49.130Z,14.93
2019-02-27T17:07:16.175Z,9.40
2019-02-27T17:09:43.860Z,7.47
2019-02-27T17:12:12.014Z,5.90
2019-02-27T17:14:39.442Z,8.67
2019-02-27T17:17:06.612Z,9.80
2019-02-27T17:19:36.518Z,10.07
2019-02-27T17:22:02.710Z,7.60
2019-02-27T17:24:29.816Z,10.23
2019-02-27T17:26:56.933Z,8.90
2019-02-27T17:29:26.443Z,12.43
2019-02-27T17:31:55.797Z,11.77
2019-02-27T17:34:22.035Z,8.90
2019-02-27T17:36:49.135Z,10.60
2019-02-27T17:39:16.241Z,11.93
2019-02-27T17:41:45.400Z,11.03
2019-02-27T17:44:12.591Z,8.77
2019-02-27T17:46:39.694Z,11.07
2019-02-27T17:49:07.378Z,15.07
2019-02-27T17:51:34.506Z,12.00
2019-02-27T17:54:01.622Z,11.20
2019-02-27T17:56:30.508Z,12.23
2019-02-27T17:59:00.052Z,11.90
2019-02-27T18:01:27.188Z,13.97
2019-02-27T18:03:55.144Z,13.80
2019-02-27T18:06:22.247Z,12.13
2019-02-27T18:08:51.546Z,14.53
2019-02-27T18:11:19.511Z,22.03
2019-02-27T18:13:50.029Z,11.03
2019-02-27T18:16:17.185Z,16.52
2019-02-27T18:18:44.336Z,23.67
2019-02-27T18:21:11.511Z,26.87
2019-02-27T18:23:39.006Z,18.00
2019-02-27T18:26:06.199Z,16.77
2019-02-27T18:28:33.698Z,20.37
2019-02-27T18:31:00.981Z,24.27
2019-02-27T18:33:29.128Z,18.75
2019-02-27T18:35:56.276Z,21.68
2019-02-27T18:38:27.631Z,29.80
2019-02-27T18:40:52.465Z,35.55
2019-02-27T18:43:19.940Z,34.38
2019-02-27T18:45:48.177Z,35.08
2019-02-27T18:48:16.318Z,24.60
2019-02-27T18:50:44.129Z,21.12
2019-02-27T18:53:14.068Z,21.12
2019-02-27T18:55:41.725Z,25.90
2019-02-27T18:58:08.887Z,27.95
2019-02-27T19:00:38.088Z,29.67
2019-02-27T19:03:05.384Z,22.65
2019-02-27T19:05:38.151Z,23.22
2019-02-27T19:08:05.787Z,25.45
2019-02-27T19:10:41.403Z,28.80
2019-02-27T19:13:05.584Z,33.35
2019-02-27T19:15:33.880Z,40.85
2019-02-27T19:18:03.687Z,31.23
2019-02-27T19:20:35.706Z,37.50
2019-02-27T19:23:03.373Z,36.15
2019-02-27T19:25:35.521Z,33.35
2019-02-27T19:28:06.208Z,39.38
2019-02-27T19:30:34.759Z,45.58
2019-02-27T19:33:04.267Z,63.15
2019-02-27T19:35:32.784Z,60.90
2019-02-27T19:38:00.514Z,57.80
2019-02-27T19:40:30.468Z,50.43
2019-02-27T19:43:00.016Z,39.85
2019-02-27T19:45:27.406Z,47.48
2019-02-27T19:47:55.873Z,43.08
2019-02-27T19:50:26.098Z,39.45
2019-02-27T19:52:55.708Z,35.68
2019-02-27T19:55:26.526Z,39.53
2019-02-27T19:57:52.654Z,39.48
2019-02-27T20:00:24.075Z,41.20
2019-02-27T20:02:55.159Z,40.48
2019-02-27T20:05:22.158Z,35.13
2019-02-27T20:07:50.514Z,37.67
2019-02-27T20:10:20.887Z,36.23
2019-02-27T20:12:52.728Z,38.48
2019-02-27T20:15:19.564Z,45.95
2019-02-27T20:17:46.946Z,42.70
2019-02-27T20:20:14.513Z,42.65
2019-02-27T20:22:42.292Z,52.27
2019-02-27T20:25:12.050Z,43.60
2019-02-27T20:27:40.142Z,43.63
2019-02-27T20:30:14.344Z,41.77
2019-02-27T20:32:45.049Z,38.83
2019-02-27T20:35:17.315Z,40.23
2019-02-27T20:37:44.969Z,34.43
2019-02-27T20:40:15.266Z,42.38
2019-02-27T20:42:50.386Z,38.75
2019-02-27T20:45:17.628Z,39.42
2019-02-27T20:47:45.519Z,42.78
2019-02-27T20:50:20.934Z,48.68
2019-02-27T20:52:46.502Z,39.50
2019-02-27T20:55:15.068Z,42.75
2019-02-27T20:57:44.890Z,45.15
2019-02-27T21:00:13.257Z,42.03
2019-02-27T21:02:40.656Z,35.13
2019-02-27T21:05:09.493Z,45.35
2019-02-27T21:07:37.860Z,43.30
2019-02-27T21:10:08.269Z,48.98
2019-02-27T21:12:37.382Z,38.20
2019-02-27T21:15:05.694Z,40.20
2019-02-27T21:17:32.968Z,41.55
2019-02-27T21:20:00.470Z,34.90
2019-02-27T21:22:27.857Z,38.60
2019-02-27T21:24:55.596Z,34.13
2019-02-27T21:27:22.783Z,32.85
2019-02-27T21:29:49.881Z,29.77
2019-02-27T21:32:17.020Z,40.67
2019-02-27T21:34:44.150Z,34.50
2019-02-27T21:37:11.276Z,33.15
2019-02-27T21:39:39.175Z,30.43
2019-02-27T21:42:07.156Z,29.30
2019-02-27T21:44:34.285Z,37.73
2019-02-27T21:47:01.420Z,31.05
2019-02-27T21:49:31.614Z,33.18
2019-02-27T21:51:57.731Z,31.33
2019-02-27T21:54:24.870Z,36.63
2019-02-27T21:56:52.562Z,29.52
2019-02-27T21:59:19.816Z,29.80
2019-02-27T22:01:50.083Z,33.55
2019-02-27T22:04:17.177Z,39.88
2019-02-27T22:06:44.250Z,55.73
2019-02-27T22:09:13.657Z,38.63
2019-02-27T22:11:40.284Z,33.13
2019-02-27T22:14:07.358Z,29.55
2019-02-27T22:16:34.536Z,30.52
2019-02-27T22:19:01.610Z,28.12
2019-02-27T22:21:31.314Z,24.32
2019-02-27T22:23:57.602Z,30.45
2019-02-27T22:26:24.762Z,28.12
2019-02-27T22:28:54.385Z,24.85
2019-02-27T22:31:20.783Z,26.10
2019-02-27T22:33:47.824Z,28.83
2019-02-27T22:36:14.868Z,28.67
2019-02-27T22:38:41.907Z,33.33
2019-02-27T22:41:09.687Z,30.08
2019-02-27T22:43:37.193Z,32.60
2019-02-27T22:46:04.268Z,28.70
2019-02-27T22:48:31.313Z,33.63
2019-02-27T22:50:58.364Z,39.30
2019-02-27T22:53:26.192Z,28.90
2019-02-27T22:55:54.383Z,36.53
2019-02-27T22:58:21.431Z,30.88
2019-02-27T23:01:05.880Z,28.10
2019-02-27T23:03:41.323Z,25.62
2019-02-27T23:06:12.228Z,29.05
2019-02-27T23:08:38.438Z,25.48
2019-02-27T23:11:05.657Z,32.10
2019-02-27T23:13:32.719Z,27.80
2019-02-27T23:15:59.754Z,30.85
2019-02-27T23:18:33.719Z,24.40
2019-02-27T23:21:00.788Z,34.92
2019-02-27T23:23:27.812Z,26.48
2019-02-27T23:25:54.888Z,30.20
2019-02-27T23:28:21.933Z,31.05
2019-02-27T23:30:49.000Z,30.20
2019-02-27T23:33:16.021Z,28.87
2019-02-27T23:35:43.051Z,32.42
2019-02-27T23:38:10.092Z,30.48
2019-02-27T23:40:37.134Z,31.90
2019-02-27T23:43:04.185Z,23.27
2019-02-27T23:45:31.215Z,22.20
2019-02-27T23:47:59.225Z,25.10
2019-02-27T23:50:27.185Z,28.15
2019-02-27T23:52:54.242Z,22.50
2019-02-27T23:55:21.319Z,26.95
2019-02-27T23:57:48.360Z,20.52
